createdAt,value
2023-04-15T00:01:01.344Z,29.30
2023-04-15T00:03:31.223Z,29.50
2023-04-15T00:06:01.690Z,29.60
2023-04-15T00:08:31.628Z,29.80
2023-04-15T00:11:04.345Z,29.80
2023-04-15T00:13:36.289Z,29.80
2023-04-15T00:16:06.378Z,29.80
2023-04-15T00:18:37.173Z,29.90
2023-04-15T00:21:07.860Z,29.90
2023-04-15T00:23:38.341Z,30.00
2023-04-15T00:26:08.925Z,30.10
2023-04-15T00:28:38.871Z,30.10
2023-04-15T00:31:08.783Z,30.10
2023-04-15T00:33:38.608Z,30.20
2023-04-15T00:36:10.248Z,30.20
2023-04-15T00:38:43.595Z,30.20
2023-04-15T00:41:14.372Z,30.30
2023-04-15T00:43:44.958Z,30.30
2023-04-15T00:46:17.770Z,30.20
2023-04-15T00:48:48.825Z,30.30
2023-04-15T00:51:19.138Z,30.30
2023-04-15T00:53:48.759Z,30.50
2023-04-15T00:56:19.069Z,30.50
2023-04-15T00:58:48.762Z,30.60
2023-04-15T01:01:22.942Z,30.60
2023-04-15T01:03:53.915Z,30.70
2023-04-15T01:06:23.925Z,30.70
2023-04-15T01:08:54.044Z,30.70
2023-04-15T01:11:25.581Z,30.90
2023-04-15T01:13:58.381Z,30.90
2023-04-15T01:16:30.164Z,31.00
2023-04-15T01:19:00.566Z,31.10
2023-04-15T01:21:31.410Z,31.20
2023-04-15T01:24:01.603Z,31.30
2023-04-15T01:26:32.200Z,31.40
2023-04-15T01:29:02.941Z,31.40
2023-04-15T01:31:32.826Z,31.50
2023-04-15T01:34:02.922Z,31.50
2023-04-15T01:36:32.669Z,31.60
2023-04-15T01:39:03.006Z,31.70
2023-04-15T01:41:33.159Z,31.70
2023-04-15T01:44:03.445Z,31.80
2023-04-15T01:46:33.743Z,31.90
2023-04-15T01:49:03.740Z,32.00
2023-04-15T01:51:35.625Z,32.10
2023-04-15T01:54:05.821Z,32.10
2023-04-15T01:56:35.596Z,32.10
2023-04-15T01:59:06.261Z,32.20
2023-04-15T02:01:36.645Z,32.40
2023-04-15T02:04:06.888Z,32.50
2023-04-15T02:06:37.871Z,32.40
2023-04-15T02:09:07.922Z,32.60
2023-04-15T02:11:38.802Z,32.70
2023-04-15T02:14:08.905Z,32.70
2023-04-15T02:16:38.699Z,32.90
2023-04-15T02:19:10.399Z,33.00
2023-04-15T02:21:41.288Z,33.20
2023-04-15T02:24:11.037Z,33.30
2023-04-15T02:26:43.862Z,33.40
2023-04-15T02:29:14.048Z,33.40
2023-04-15T02:31:43.977Z,33.50
2023-04-15T02:34:15.950Z,33.60
2023-04-15T02:36:50.092Z,33.70
2023-04-15T02:39:20.321Z,33.80
2023-04-15T02:41:53.489Z,33.80
2023-04-15T02:44:26.349Z,33.90
2023-04-15T02:47:01.477Z,34.00
2023-04-15T02:49:32.478Z,34.00
2023-04-15T02:52:03.259Z,34.00
2023-04-15T02:54:34.505Z,34.20
2023-04-15T02:57:05.445Z,34.30
2023-04-15T02:59:35.558Z,34.40
2023-04-15T03:02:08.552Z,34.50
2023-04-15T03:04:38.512Z,34.60
2023-04-15T03:07:08.261Z,34.60
2023-04-15T03:09:38.188Z,34.70
2023-04-15T03:12:07.893Z,34.90
2023-04-15T03:14:37.950Z,35.10
2023-04-15T03:17:07.708Z,35.10
2023-04-15T03:19:37.864Z,35.30
2023-04-15T03:22:07.791Z,35.50
2023-04-15T03:24:37.620Z,35.60
2023-04-15T03:27:09.444Z,35.90
2023-04-15T03:29:39.749Z,35.90
2023-04-15T03:32:10.596Z,36.20
2023-04-15T03:34:40.647Z,36.50
2023-04-15T03:37:10.633Z,36.50
2023-04-15T03:39:40.880Z,36.80
2023-04-15T03:42:10.525Z,36.80
2023-04-15T03:44:40.373Z,36.80
2023-04-15T03:47:10.177Z,36.60
2023-04-15T03:49:40.247Z,36.80
2023-04-15T03:52:09.958Z,36.90
2023-04-15T03:54:39.862Z,36.90
2023-04-15T03:57:09.505Z,37.10
2023-04-15T03:59:39.571Z,37.30
2023-04-15T04:02:09.782Z,37.30
2023-04-15T04:04:39.790Z,37.30
2023-04-15T04:07:09.507Z,37.20
2023-04-15T04:09:42.124Z,37.00
2023-04-15T04:12:12.102Z,37.10
2023-04-15T04:14:42.273Z,37.20
2023-04-15T04:17:12.626Z,37.40
2023-04-15T04:19:42.396Z,37.60
2023-04-15T04:22:12.296Z,37.60
2023-04-15T04:24:41.987Z,37.80
2023-04-15T04:27:12.315Z,37.50
2023-04-15T04:29:42.034Z,37.50
2023-04-15T04:32:12.777Z,37.70
2023-04-15T04:34:43.542Z,37.80
2023-04-15T04:37:13.369Z,37.90
2023-04-15T04:39:43.313Z,38.20
2023-04-15T04:42:13.432Z,38.40
2023-04-15T04:44:43.073Z,37.90
2023-04-15T04:47:12.997Z,37.90
2023-04-15T04:49:43.050Z,38.20
2023-04-15T04:52:13.174Z,38.10
2023-04-15T04:54:43.100Z,38.40
2023-04-15T04:57:15.027Z,38.50
2023-04-15T04:59:45.101Z,38.30
2023-04-15T05:02:15.448Z,38.60
2023-04-15T05:04:45.423Z,38.70
2023-04-15T05:07:15.153Z,38.90
2023-04-15T05:09:45.209Z,39.10
2023-04-15T05:12:16.618Z,39.10
2023-04-15T05:14:48.201Z,38.70
2023-04-15T05:17:18.138Z,39.00
2023-04-15T05:19:47.915Z,39.10
2023-04-15T05:22:17.991Z,39.30
2023-04-15T05:24:48.148Z,39.70
2023-04-15T05:27:18.205Z,39.60
2023-04-15T05:29:47.979Z,39.80
2023-04-15T05:32:18.916Z,39.80
2023-04-15T05:34:48.850Z,39.90
2023-04-15T05:37:18.576Z,39.70
2023-04-15T05:39:49.798Z,39.80
2023-04-15T05:42:19.754Z,39.80
2023-04-15T05:44:49.497Z,39.80
2023-04-15T05:47:19.712Z,40.00
2023-04-15T05:49:49.381Z,40.10
2023-04-15T05:52:19.604Z,39.90
2023-04-15T05:54:49.321Z,40.00
2023-04-15T05:57:19.417Z,40.20
2023-04-15T05:59:49.128Z,40.30
2023-04-15T06:02:19.254Z,40.30
2023-04-15T06:04:49.385Z,40.30
2023-04-15T06:07:19.458Z,40.40
2023-04-15T06:09:49.143Z,40.00
2023-04-15T06:12:19.184Z,40.10
2023-04-15T06:14:48.884Z,40.20
2023-04-15T06:17:20.384Z,40.10
2023-04-15T06:19:51.892Z,40.00
2023-04-15T06:22:22.009Z,40.20
2023-04-15T06:24:53.060Z,40.40
2023-04-15T06:27:24.595Z,40.50
2023-04-15T06:29:54.589Z,40.40
2023-04-15T06:32:24.318Z,40.50
2023-04-15T06:34:54.428Z,40.40
2023-04-15T06:37:24.136Z,40.50
2023-04-15T06:39:54.174Z,40.50
2023-04-15T06:42:24.590Z,40.60
2023-04-15T06:44:54.769Z,40.70
2023-04-15T06:47:24.675Z,40.70
2023-04-15T06:49:54.531Z,40.60
2023-04-15T06:52:24.201Z,40.90
2023-04-15T06:54:54.048Z,40.70
2023-04-15T06:57:23.784Z,40.70
2023-04-15T06:59:56.077Z,40.70
2023-04-15T07:02:26.233Z,40.90
2023-04-15T07:04:55.929Z,40.70
2023-04-15T07:07:25.804Z,40.70
2023-04-15T07:09:55.552Z,40.90
2023-04-15T07:12:28.112Z,40.80
2023-04-15T07:14:58.013Z,40.50
2023-04-15T07:17:27.878Z,40.60
2023-04-15T07:19:57.919Z,40.60
2023-04-15T07:22:27.826Z,40.70
2023-04-15T07:24:57.898Z,40.70
2023-04-15T07:27:28.091Z,40.70
2023-04-15T07:29:58.006Z,40.70
2023-04-15T07:32:27.796Z,40.80
2023-04-15T07:34:58.149Z,40.90
2023-04-15T07:37:27.989Z,40.80
2023-04-15T07:39:58.292Z,41.00
2023-04-15T07:42:28.631Z,40.80
2023-04-15T07:44:59.507Z,40.90
2023-04-15T07:47:29.528Z,40.90
2023-04-15T07:49:59.282Z,40.90
2023-04-15T07:52:29.216Z,40.90
2023-04-15T07:54:58.952Z,41.10
2023-04-15T07:57:28.821Z,40.90
2023-04-15T07:59:58.557Z,41.10
2023-04-15T08:02:29.476Z,41.20
2023-04-15T08:05:00.233Z,41.30
2023-04-15T08:07:30.105Z,41.10
2023-04-15T08:10:00.191Z,40.90
2023-04-15T08:12:30.139Z,40.90
2023-04-15T08:15:00.068Z,40.70
2023-04-15T08:17:29.941Z,40.40
2023-04-15T08:20:00.046Z,40.30
2023-04-15T08:22:30.201Z,40.30
2023-04-15T08:25:01.054Z,40.20
2023-04-15T08:27:30.746Z,40.00
2023-04-15T08:30:02.756Z,39.90
2023-04-15T08:32:34.234Z,39.90
2023-04-15T08:35:04.068Z,39.80
2023-04-15T08:37:34.041Z,39.70
2023-04-15T08:40:03.820Z,39.70
2023-04-15T08:42:38.997Z,39.60
2023-04-15T08:45:12.967Z,39.60
2023-04-15T08:47:44.578Z,39.50
2023-04-15T08:50:15.835Z,39.50
2023-04-15T08:52:48.682Z,39.50
2023-04-15T08:55:19.130Z,39.40
2023-04-15T08:57:49.069Z,39.40
2023-04-15T09:00:19.605Z,39.30
2023-04-15T09:02:50.218Z,39.20
2023-04-15T09:05:22.961Z,39.10
2023-04-15T09:07:55.986Z,39.10
2023-04-15T09:10:26.125Z,39.00
2023-04-15T09:12:56.391Z,38.90
2023-04-15T09:15:30.967Z,38.90
2023-04-15T09:18:01.205Z,38.90
2023-04-15T09:20:31.387Z,38.80
2023-04-15T09:23:01.305Z,38.80
2023-04-15T09:25:34.862Z,38.70
2023-04-15T09:28:05.787Z,38.70
2023-04-15T09:30:36.172Z,38.60
2023-04-15T09:33:12.337Z,38.60
2023-04-15T09:35:42.231Z,38.50
2023-04-15T09:38:12.762Z,38.50
2023-04-15T09:40:43.996Z,38.50
2023-04-15T09:43:18.734Z,38.50
2023-04-15T09:45:53.862Z,38.40
2023-04-15T09:48:32.671Z,38.40
2023-04-15T09:51:03.837Z,38.30
2023-04-15T09:53:37.199Z,38.20
2023-04-15T09:56:09.501Z,38.20
2023-04-15T09:58:40.296Z,38.20
2023-04-15T10:01:10.650Z,38.10
2023-04-15T10:03:44.119Z,38.10
2023-04-15T10:06:14.759Z,38.00
2023-04-15T10:08:44.695Z,37.90
2023-04-15T10:11:15.517Z,37.90
2023-04-15T10:13:46.792Z,37.90
2023-04-15T10:16:24.605Z,37.80
2023-04-15T10:18:57.624Z,37.70
2023-04-15T10:21:28.081Z,37.70
2023-04-15T10:23:58.108Z,37.70
2023-04-15T10:26:28.421Z,37.70
2023-04-15T10:29:00.058Z,37.60
2023-04-15T10:31:30.474Z,37.60
2023-04-15T10:34:05.314Z,37.60
2023-04-15T10:36:35.800Z,37.60
2023-04-15T10:39:25.016Z,37.50
2023-04-15T10:42:16.882Z,37.50
2023-04-15T10:44:53.147Z,37.50
2023-04-15T10:47:24.005Z,37.40
2023-04-15T10:50:05.082Z,37.40
2023-04-15T10:52:35.151Z,37.50
2023-04-15T10:55:17.529Z,37.40
2023-04-15T10:57:47.905Z,37.40
2023-04-15T11:00:19.241Z,37.30
2023-04-15T11:03:00.803Z,37.10
2023-04-15T11:05:51.850Z,37.10
2023-04-15T11:08:22.742Z,37.20
2023-04-15T11:10:54.426Z,37.20
2023-04-15T11:13:26.727Z,37.30
2023-04-15T11:16:00.620Z,37.40
2023-04-15T11:18:32.990Z,37.40
2023-04-15T11:21:06.797Z,37.40
2023-04-15T11:23:48.242Z,37.30
2023-04-15T11:26:18.182Z,37.30
2023-04-15T11:28:48.376Z,37.30
2023-04-15T11:31:21.380Z,37.20
2023-04-15T11:34:03.866Z,36.90
2023-04-15T11:36:34.533Z,36.70
2023-04-15T11:39:04.466Z,36.60
2023-04-15T11:41:34.226Z,36.60
2023-04-15T11:44:04.342Z,36.50
2023-04-15T11:46:34.461Z,36.50
2023-04-15T11:49:06.251Z,36.40
2023-04-15T11:51:37.391Z,36.10
2023-04-15T11:54:07.485Z,36.10
2023-04-15T11:56:37.545Z,36.40
2023-04-15T11:59:07.450Z,36.20
2023-04-15T12:01:49.034Z,36.10
2023-04-15T12:04:25.450Z,36.30
2023-04-15T12:06:55.991Z,36.30
2023-04-15T12:09:26.714Z,36.30
2023-04-15T12:11:59.930Z,36.30
2023-04-15T12:14:34.909Z,36.10
2023-04-15T12:17:07.229Z,36.10
2023-04-15T12:19:45.779Z,36.00
2023-04-15T12:22:17.894Z,35.90
2023-04-15T12:24:50.199Z,35.90
2023-04-15T12:27:20.335Z,35.80
2023-04-15T12:29:50.114Z,35.70
2023-04-15T12:32:22.479Z,35.70
2023-04-15T12:34:53.752Z,35.60
2023-04-15T12:37:23.913Z,35.30
2023-04-15T12:39:55.403Z,35.40
2023-04-15T12:42:25.649Z,35.30
2023-04-15T12:44:55.281Z,35.30
2023-04-15T12:47:25.131Z,35.20
2023-04-15T12:49:55.242Z,35.10
2023-04-15T12:52:25.995Z,35.10
2023-04-15T12:54:56.102Z,35.00
2023-04-15T12:57:26.198Z,35.00
2023-04-15T12:59:55.858Z,35.00
2023-04-15T13:02:27.010Z,35.00
2023-04-15T13:04:57.291Z,34.90
2023-04-15T13:07:27.665Z,35.00
2023-04-15T13:09:57.521Z,34.90
2023-04-15T13:12:27.154Z,35.00
2023-04-15T13:14:57.451Z,35.00
2023-04-15T13:17:27.257Z,34.90
2023-04-15T13:19:57.498Z,34.90
2023-04-15T13:22:27.289Z,35.00
2023-04-15T13:25:00.243Z,34.90
2023-04-15T13:27:30.201Z,34.70
2023-04-15T13:29:59.868Z,34.70
2023-04-15T13:32:29.907Z,34.80
2023-04-15T13:34:59.633Z,34.80
2023-04-15T13:37:30.603Z,34.70
2023-04-15T13:40:00.656Z,34.70
2023-04-15T13:42:30.285Z,34.60
2023-04-15T13:45:00.059Z,34.60
2023-04-15T13:47:29.953Z,34.50
2023-04-15T13:50:00.133Z,34.60
2023-04-15T13:52:29.811Z,34.60
2023-04-15T13:55:07.896Z,34.40
2023-04-15T13:57:50.144Z,34.50
2023-04-15T14:00:20.004Z,34.40
2023-04-15T14:02:50.165Z,34.30
2023-04-15T14:05:19.950Z,34.30
2023-04-15T14:07:50.658Z,34.10
2023-04-15T14:10:21.330Z,34.10
2023-04-15T14:12:51.057Z,34.00
2023-04-15T14:15:21.802Z,33.90
2023-04-15T14:17:51.488Z,33.80
2023-04-15T14:20:21.800Z,33.90
2023-04-15T14:22:51.553Z,33.80
2023-04-15T14:25:32.764Z,33.90
2023-04-15T14:28:04.801Z,33.90
2023-04-15T14:30:34.948Z,33.80
2023-04-15T14:33:04.932Z,33.90
2023-04-15T14:35:34.836Z,33.80
2023-04-15T14:38:04.512Z,33.70
2023-04-15T14:40:35.786Z,33.70
2023-04-15T14:43:05.823Z,33.70
2023-04-15T14:45:35.834Z,33.70
2023-04-15T14:48:07.875Z,33.50
2023-04-15T14:50:38.274Z,33.50
2023-04-15T14:53:08.016Z,33.50
2023-04-15T14:55:38.039Z,33.60
2023-04-15T14:58:09.672Z,33.50
2023-04-15T15:00:43.445Z,33.50
2023-04-15T15:03:14.340Z,33.50
2023-04-15T15:05:46.287Z,33.50
2023-04-15T15:08:16.779Z,33.50
2023-04-15T15:10:48.766Z,33.50
2023-04-15T15:13:20.835Z,33.50
2023-04-15T15:15:50.933Z,33.30
2023-04-15T15:18:20.809Z,33.30
2023-04-15T15:20:51.002Z,33.20
2023-04-15T15:23:20.617Z,33.20
2023-04-15T15:25:50.828Z,33.20
2023-04-15T15:28:20.483Z,33.00
2023-04-15T15:30:50.581Z,32.90
2023-04-15T15:33:20.217Z,32.80
2023-04-15T15:35:50.022Z,32.90
2023-04-15T15:38:19.840Z,32.90
2023-04-15T15:40:49.872Z,32.90
2023-04-15T15:43:19.482Z,32.70
2023-04-15T15:45:53.044Z,32.70
2023-04-15T15:48:24.639Z,32.70
2023-04-15T15:50:55.017Z,32.60
2023-04-15T15:53:26.574Z,32.60
2023-04-15T15:55:56.617Z,32.30
2023-04-15T15:58:26.264Z,32.40
2023-04-15T16:00:56.143Z,32.40
2023-04-15T16:03:26.373Z,32.30
2023-04-15T16:05:56.476Z,32.10
2023-04-15T16:08:27.726Z,32.00
2023-04-15T16:10:57.859Z,32.00
2023-04-15T16:13:27.639Z,32.00
2023-04-15T16:15:57.652Z,32.00
2023-04-15T16:18:27.317Z,32.00
2023-04-15T16:20:57.476Z,31.80
2023-04-15T16:23:27.351Z,31.90
2023-04-15T16:25:57.331Z,31.80
2023-04-15T16:28:27.333Z,31.60
2023-04-15T16:30:58.653Z,31.60
2023-04-15T16:33:29.133Z,31.60
2023-04-15T16:35:58.868Z,31.60
2023-04-15T16:38:28.932Z,31.60
2023-04-15T16:41:02.397Z,31.60
2023-04-15T16:43:32.825Z,31.50
2023-04-15T16:46:02.929Z,31.50
2023-04-15T16:48:33.123Z,31.40
2023-04-15T16:51:02.974Z,31.50
2023-04-15T16:53:32.846Z,31.40
2023-04-15T16:56:02.846Z,31.40
2023-04-15T16:58:33.388Z,31.40
2023-04-15T17:01:03.598Z,31.40
2023-04-15T17:03:33.693Z,31.30
2023-04-15T17:06:04.000Z,31.30
2023-04-15T17:08:33.771Z,31.20
2023-04-15T17:11:03.671Z,31.20
2023-04-15T17:13:33.388Z,31.20
2023-04-15T17:16:03.965Z,31.20
2023-04-15T17:18:33.798Z,31.20
2023-04-15T17:21:03.732Z,31.10
2023-04-15T17:23:33.550Z,31.10
2023-04-15T17:26:03.620Z,31.10
2023-04-15T17:28:33.399Z,31.10
2023-04-15T17:31:03.390Z,31.10
2023-04-15T17:34:00.784Z,31.10
2023-04-15T17:36:24.045Z,31.20
2023-04-15T17:38:53.663Z,31.10
2023-04-15T17:41:23.512Z,31.10
2023-04-15T17:43:53.279Z,31.00
2023-04-15T17:46:23.907Z,30.90
2023-04-15T17:48:53.605Z,30.80
2023-04-15T17:51:23.483Z,30.80
2023-04-15T17:54:09.134Z,30.80
2023-04-15T17:56:39.199Z,30.80
2023-04-15T17:59:10.318Z,30.80
2023-04-15T18:01:40.456Z,30.70
2023-04-15T18:04:10.834Z,30.70
2023-04-15T18:06:41.257Z,30.80
2023-04-15T18:09:10.854Z,30.80
2023-04-15T18:11:41.564Z,30.70
2023-04-15T18:14:12.588Z,30.70
2023-04-15T18:16:44.237Z,30.60
2023-04-15T18:19:17.187Z,30.60
2023-04-15T18:21:48.052Z,30.50
2023-04-15T18:24:17.679Z,30.50
2023-04-15T18:26:49.010Z,30.50
2023-04-15T18:29:20.100Z,30.50
2023-04-15T18:31:49.806Z,30.50
2023-04-15T18:34:19.821Z,30.40
2023-04-15T18:36:52.148Z,30.40
2023-04-15T18:39:22.102Z,30.40
2023-04-15T18:41:51.769Z,30.40
2023-04-15T18:44:22.117Z,30.30
2023-04-15T18:46:51.934Z,30.30
2023-04-15T18:49:22.335Z,30.40
2023-04-15T18:51:52.013Z,30.30
2023-04-15T18:54:22.092Z,30.30
2023-04-15T18:56:52.579Z,30.40
2023-04-15T18:59:29.291Z,30.40
2023-04-15T19:02:00.689Z,30.30
2023-04-15T19:04:30.781Z,30.10
2023-04-15T19:07:00.564Z,30.10
2023-04-15T19:09:31.293Z,30.00
2023-04-15T19:12:00.969Z,30.00
2023-04-15T19:14:31.239Z,30.00
2023-04-15T19:17:01.112Z,29.90
2023-04-15T19:19:31.397Z,29.90
2023-04-15T19:22:03.151Z,29.90
2023-04-15T19:24:36.639Z,29.70
2023-04-15T19:27:06.789Z,29.70
2023-04-15T19:29:36.531Z,29.70
2023-04-15T19:32:07.264Z,29.80
2023-04-15T19:34:36.925Z,29.80
2023-04-15T19:37:07.062Z,29.70
2023-04-15T19:39:36.898Z,29.70
2023-04-15T19:42:06.830Z,29.70
2023-04-15T19:44:36.477Z,29.70
2023-04-15T19:47:06.810Z,29.70
2023-04-15T19:49:36.516Z,29.60
2023-04-15T19:52:06.943Z,29.60
2023-04-15T19:54:36.749Z,29.50
2023-04-15T19:57:06.983Z,29.60
2023-04-15T19:59:36.786Z,29.60
2023-04-15T20:02:06.777Z,29.60
2023-04-15T20:04:36.718Z,29.60
2023-04-15T20:07:07.071Z,29.60
2023-04-15T20:09:37.039Z,29.50
2023-04-15T20:12:50.107Z,29.50
2023-04-15T20:14:57.380Z,29.50
2023-04-15T20:17:27.141Z,29.50
2023-04-15T20:19:57.191Z,29.40
2023-04-15T20:22:27.012Z,29.50
2023-04-15T20:24:57.342Z,29.50
2023-04-15T20:27:27.003Z,29.60
2023-04-15T20:29:57.174Z,29.50
2023-04-15T20:32:28.620Z,29.50
2023-04-15T20:34:58.779Z,29.50
2023-04-15T20:37:28.476Z,29.50
2023-04-15T20:39:58.352Z,29.40
2023-04-15T20:42:28.297Z,29.30
2023-04-15T20:44:58.462Z,29.40
2023-04-15T20:47:28.211Z,29.30
2023-04-15T20:49:58.260Z,29.30
2023-04-15T20:52:27.948Z,29.40
2023-04-15T20:54:58.159Z,29.30
2023-04-15T20:57:28.078Z,29.30
2023-04-15T20:59:58.186Z,29.30
2023-04-15T21:02:28.136Z,29.30
2023-04-15T21:05:00.701Z,29.20
2023-04-15T21:07:30.522Z,29.20
2023-04-15T21:10:00.275Z,29.10
2023-04-15T21:12:30.341Z,29.20
2023-04-15T21:15:00.026Z,29.20
2023-04-15T21:17:29.921Z,29.20
2023-04-15T21:19:59.613Z,29.20
2023-04-15T21:22:29.655Z,29.10
2023-04-15T21:24:59.499Z,29.10
2023-04-15T21:27:29.495Z,29.20
2023-04-15T21:29:59.219Z,29.10
2023-04-15T21:32:29.358Z,29.10
2023-04-15T21:34:59.130Z,29.00
2023-04-15T21:37:29.086Z,29.00
2023-04-15T21:39:59.464Z,29.10
2023-04-15T21:42:29.654Z,29.00
2023-04-15T21:44:59.313Z,29.10
2023-04-15T21:47:29.246Z,29.00
2023-04-15T21:49:59.175Z,29.10
2023-04-15T21:52:29.301Z,29.00
2023-04-15T21:54:58.999Z,29.00
2023-04-15T21:57:28.921Z,29.00
2023-04-15T21:59:58.962Z,28.90
2023-04-15T22:02:29.411Z,28.90
2023-04-15T22:04:59.791Z,28.80
2023-04-15T22:07:29.422Z,28.90
2023-04-15T22:10:00.308Z,28.80
2023-04-15T22:12:30.011Z,28.80
2023-04-15T22:15:00.072Z,28.80
2023-04-15T22:17:29.879Z,28.90
2023-04-15T22:19:59.784Z,28.90
2023-04-15T22:22:37.733Z,28.90
2023-04-15T22:25:13.954Z,28.90
2023-04-15T22:27:43.604Z,28.90
2023-04-15T22:30:13.968Z,28.80
2023-04-15T22:32:43.685Z,28.80
2023-04-15T22:35:13.563Z,28.80
2023-04-15T22:37:43.240Z,28.80
2023-04-15T22:40:13.902Z,28.90
2023-04-15T22:42:43.602Z,28.80
2023-04-15T22:45:13.724Z,28.80
2023-04-15T22:47:43.479Z,28.80
2023-04-15T22:50:13.602Z,28.80
2023-04-15T22:52:44.821Z,28.90
2023-04-15T22:55:14.957Z,28.80
2023-04-15T22:57:44.624Z,28.80
2023-04-15T23:00:14.918Z,28.80
2023-04-15T23:02:44.686Z,28.80
2023-04-15T23:05:14.770Z,28.80
2023-04-15T23:07:44.476Z,28.80
2023-04-15T23:10:15.086Z,28.90
2023-04-15T23:12:44.704Z,28.80
2023-04-15T23:15:14.582Z,28.70
2023-04-15T23:17:44.933Z,28.70
2023-04-15T23:20:15.586Z,28.80
2023-04-15T23:22:45.684Z,28.80
2023-04-15T23:25:15.366Z,28.90
2023-04-15T23:27:45.195Z,28.90
2023-04-15T23:30:14.877Z,29.00
2023-04-15T23:32:44.906Z,28.90
2023-04-15T23:35:14.608Z,28.90
2023-04-15T23:37:44.641Z,29.00
2023-04-15T23:40:14.840Z,29.00
2023-04-15T23:42:44.952Z,28.90
2023-04-15T23:45:15.710Z,28.90
2023-04-15T23:47:45.664Z,28.90
2023-04-15T23:50:15.289Z,29.00
2023-04-15T23:52:45.067Z,29.00
2023-04-15T23:55:14.739Z,29.00
2023-04-15T23:57:44.575Z,28.90
